sensor_id;sensor_type;location;lat;lon;timestamp;pressure;altitude;pressure_sealevel;temperature;humidity
33781;BME280;20097;50.832;19.100;2023-03-03T00:00:33;98603.78;;;-2.75;100.00
33781;BME280;20097;50.832;19.100;2023-03-03T00:05:38;98602.06;;;-2.75;100.00
33781;BME280;20097;50.832;19.100;2023-03-03T00:10:44;98600.63;;;-2.65;100.00
33781;BME280;20097;50.832;19.100;2023-03-03T00:15:48;98592.72;;;-2.60;100.00
33781;BME280;20097;50.832;19.100;2023-03-03T00:20:54;98586.34;;;-2.53;100.00
33781;BME280;20097;50.832;19.100;2023-03-03T00:26:01;98580.59;;;-2.57;100.00
33781;BME280;20097;50.832;19.100;2023-03-03T00:31:11;98573.44;;;-2.66;100.00
33781;BME280;20097;50.832;19.100;2023-03-03T00:36:29;98579.50;;;-2.53;100.00
33781;BME280;20097;50.832;19.100;2023-03-03T00:41:36;98579.91;;;-2.45;100.00
33781;BME280;20097;50.832;19.100;2023-03-03T00:46:42;98577.16;;;-2.42;100.00
33781;BME280;20097;50.832;19.100;2023-03-03T00:51:46;98577.25;;;-2.43;100.00
33781;BME280;20097;50.832;19.100;2023-03-03T00:56:52;98577.16;;;-2.42;100.00
33781;BME280;20097;50.832;19.100;2023-03-03T01:01:56;98576.97;;;-2.39;100.00
33781;BME280;20097;50.832;19.100;2023-03-03T01:07:00;98567.50;;;-2.37;100.00
33781;BME280;20097;50.832;19.100;2023-03-03T01:12:06;98567.41;;;-2.35;100.00
33781;BME280;20097;50.832;19.100;2023-03-03T01:17:11;98566.44;;;-2.33;100.00
33781;BME280;20097;50.832;19.100;2023-03-03T01:22:15;98557.38;;;-2.38;100.00
33781;BME280;20097;50.832;19.100;2023-03-03T01:27:20;98563.31;;;-2.38;100.00
33781;BME280;20097;50.832;19.100;2023-03-03T01:32:25;98566.25;;;-2.30;100.00
33781;BME280;20097;50.832;19.100;2023-03-03T01:37:29;98555.31;;;-2.18;100.00
33781;BME280;20097;50.832;19.100;2023-03-03T01:42:35;98559.44;;;-2.01;100.00
33781;BME280;20097;50.832;19.100;2023-03-03T01:47:39;98559.03;;;-1.94;100.00
33781;BME280;20097;50.832;19.100;2023-03-03T01:52:45;98560.66;;;-1.79;100.00
33781;BME280;20097;50.832;19.100;2023-03-03T01:57:55;98561.00;;;-1.71;100.00
33781;BME280;20097;50.832;19.100;2023-03-03T02:03:00;98555.38;;;-1.62;100.00
33781;BME280;20097;50.832;19.100;2023-03-03T02:08:04;98550.59;;;-1.54;100.00
33781;BME280;20097;50.832;19.100;2023-03-03T02:13:13;98539.63;;;-1.56;100.00
33781;BME280;20097;50.832;19.100;2023-03-03T02:18:18;98535.41;;;-1.43;100.00
33781;BME280;20097;50.832;19.100;2023-03-03T02:23:25;98526.84;;;-1.42;100.00
33781;BME280;20097;50.832;19.100;2023-03-03T02:28:36;98537.13;;;-1.29;100.00
33781;BME280;20097;50.832;19.100;2023-03-03T02:33:46;98531.53;;;-1.21;100.00
33781;BME280;20097;50.832;19.100;2023-03-03T02:38:52;98525.38;;;-1.05;100.00
33781;BME280;20097;50.832;19.100;2023-03-03T02:44:04;98522.38;;;-1.11;100.00
33781;BME280;20097;50.832;19.100;2023-03-03T02:49:10;98506.84;;;-0.96;100.00
33781;BME280;20097;50.832;19.100;2023-03-03T02:54:15;98517.34;;;-0.86;100.00
33781;BME280;20097;50.832;19.100;2023-03-03T02:59:21;98499.22;;;-0.83;100.00
33781;BME280;20097;50.832;19.100;2023-03-03T03:04:27;98505.75;;;-0.92;100.00
33781;BME280;20097;50.832;19.100;2023-03-03T03:09:31;98515.28;;;-0.81;100.00
33781;BME280;20097;50.832;19.100;2023-03-03T03:14:37;98519.81;;;-0.85;100.00
33781;BME280;20097;50.832;19.100;2023-03-03T03:19:42;98519.91;;;-0.86;100.00
33781;BME280;20097;50.832;19.100;2023-03-03T03:24:46;98529.34;;;-0.87;100.00
33781;BME280;20097;50.832;19.100;2023-03-03T03:29:52;98527.78;;;-0.89;100.00
33781;BME280;20097;50.832;19.100;2023-03-03T03:34:57;98519.91;;;-0.86;100.00
33781;BME280;20097;50.832;19.100;2023-03-03T03:40:01;98508.53;;;-0.82;100.00
33781;BME280;20097;50.832;19.100;2023-03-03T03:45:08;98512.66;;;-0.80;100.00
33781;BME280;20097;50.832;19.100;2023-03-03T03:50:13;98512.72;;;-0.81;100.00
33781;BME280;20097;50.832;19.100;2023-03-03T03:55:18;98518.44;;;-0.64;100.00
33781;BME280;20097;50.832;19.100;2023-03-03T04:00:26;98512.59;;;-0.66;100.00
33781;BME280;20097;50.832;19.100;2023-03-03T04:05:34;98498.88;;;-0.52;100.00
33781;BME280;20097;50.832;19.100;2023-03-03T04:10:38;98511.19;;;-0.57;100.00
33781;BME280;20097;50.832;19.100;2023-03-03T04:15:44;98512.03;;;-0.44;100.00
33781;BME280;20097;50.832;19.100;2023-03-03T04:20:49;98514.16;;;-0.51;100.00
33781;BME280;20097;50.832;19.100;2023-03-03T04:25:54;98511.41;;;-0.48;100.00
33781;BME280;20097;50.832;19.100;2023-03-03T04:31:00;98503.41;;;-0.43;100.00
33781;BME280;20097;50.832;19.100;2023-03-03T04:36:07;98514.38;;;-0.41;100.00
33781;BME280;20097;50.832;19.100;2023-03-03T04:41:15;98501.25;;;-0.49;100.00
33781;BME280;20097;50.832;19.100;2023-03-03T04:46:21;98517.69;;;-0.39;100.00
33781;BME280;20097;50.832;19.100;2023-03-03T04:51:26;98539.28;;;-0.43;100.00
33781;BME280;20097;50.832;19.100;2023-03-03T04:56:31;98536.00;;;-0.45;100.00
33781;BME280;20097;50.832;19.100;2023-03-03T05:01:36;98530.97;;;-0.47;100.00
33781;BME280;20097;50.832;19.100;2023-03-03T05:06:41;98514.69;;;-0.46;100.00
33781;BME280;20097;50.832;19.100;2023-03-03T05:11:45;98536.63;;;-0.42;100.00
33781;BME280;20097;50.832;19.100;2023-03-03T05:16:50;98536.94;;;-0.46;100.00
33781;BME280;20097;50.832;19.100;2023-03-03T05:21:54;98541.19;;;-0.33;100.00
33781;BME280;20097;50.832;19.100;2023-03-03T05:26:59;98537.16;;;-0.37;100.00
33781;BME280;20097;50.832;19.100;2023-03-03T05:32:04;98539.50;;;-0.34;100.00
33781;BME280;20097;50.832;19.100;2023-03-03T05:37:08;98537.56;;;-0.30;100.00
33781;BME280;20097;50.832;19.100;2023-03-03T05:42:12;98536.63;;;-0.29;100.00
33781;BME280;20097;50.832;19.100;2023-03-03T05:47:18;98518.19;;;-0.22;100.00
33781;BME280;20097;50.832;19.100;2023-03-03T05:52:22;98517.19;;;-0.07;100.00
33781;BME280;20097;50.832;19.100;2023-03-03T05:57:27;98525.78;;;-0.20;100.00
33781;BME280;20097;50.832;19.100;2023-03-03T06:02:33;98527.13;;;-0.15;100.00
33781;BME280;20097;50.832;19.100;2023-03-03T06:07:37;98533.19;;;-0.03;100.00
33781;BME280;20097;50.832;19.100;2023-03-03T06:12:41;98522.41;;;0.05;100.00
33781;BME280;20097;50.832;19.100;2023-03-03T06:17:46;98519.22;;;0.01;100.00
33781;BME280;20097;50.832;19.100;2023-03-03T06:22:51;98512.25;;;0.03;100.00
33781;BME280;20097;50.832;19.100;2023-03-03T06:27:55;98536.16;;;-0.09;100.00
33781;BME280;20097;50.832;19.100;2023-03-03T06:33:01;98528.03;;;-0.03;100.00
33781;BME280;20097;50.832;19.100;2023-03-03T06:38:05;98541.59;;;-0.01;100.00
33781;BME280;20097;50.832;19.100;2023-03-03T06:43:09;98535.84;;;-0.05;100.00
33781;BME280;20097;50.832;19.100;2023-03-03T06:48:14;98536.47;;;-0.14;100.00
33781;BME280;20097;50.832;19.100;2023-03-03T06:53:19;98539.75;;;-0.12;100.00
33781;BME280;20097;50.832;19.100;2023-03-03T06:58:23;98532.56;;;-0.19;100.00
33781;BME280;20097;50.832;19.100;2023-03-03T07:03:32;98533.91;;;-0.01;100.00
33781;BME280;20097;50.832;19.100;2023-03-03T07:08:37;98552.28;;;-0.07;100.00
33781;BME280;20097;50.832;19.100;2023-03-03T07:13:45;98555.06;;;-0.10;100.00
33781;BME280;20097;50.832;19.100;2023-03-03T07:18:51;98562.94;;;-0.13;100.00
33781;BME280;20097;50.832;19.100;2023-03-03T07:23:56;98557.63;;;-0.10;100.00
33781;BME280;20097;50.832;19.100;2023-03-03T07:29:03;98567.88;;;-0.10;100.00
33781;BME280;20097;50.832;19.100;2023-03-03T07:34:21;98555.38;;;-0.02;100.00
33781;BME280;20097;50.832;19.100;2023-03-03T07:39:34;98554.13;;;-0.09;100.00
33781;BME280;20097;50.832;19.100;2023-03-03T07:44:42;98566.84;;;0.05;100.00
33781;BME280;20097;50.832;19.100;2023-03-03T07:49:50;98584.06;;;-0.10;100.00
33781;BME280;20097;50.832;19.100;2023-03-03T07:54:56;98599.09;;;-0.04;100.00
33781;BME280;20097;50.832;19.100;2023-03-03T08:00:43;98584.69;;;-0.19;100.00
33781;BME280;20097;50.832;19.100;2023-03-03T08:05:35;98575.34;;;-0.20;100.00
33781;BME280;20097;50.832;19.100;2023-03-03T08:10:42;98588.25;;;-0.21;100.00
33781;BME280;20097;50.832;19.100;2023-03-03T08:15:48;98567.31;;;-0.28;100.00
33781;BME280;20097;50.832;19.100;2023-03-03T08:20:56;98565.38;;;-0.24;100.00
33781;BME280;20097;50.832;19.100;2023-03-03T08:26:01;98576.19;;;-0.07;100.00
33781;BME280;20097;50.832;19.100;2023-03-03T08:31:04;98584.06;;;-0.10;100.00
33781;BME280;20097;50.832;19.100;2023-03-03T08:36:25;98594.44;;;-0.11;100.00
33781;BME280;20097;50.832;19.100;2023-03-03T08:41:29;98604.22;;;-0.04;100.00
33781;BME280;20097;50.832;19.100;2023-03-03T08:46:33;98591.50;;;0.08;100.00
33781;BME280;20097;50.832;19.100;2023-03-03T08:51:39;98579.59;;;0.19;100.00
33781;BME280;20097;50.832;19.100;2023-03-03T08:56:43;98572.72;;;0.32;100.00
33781;BME280;20097;50.832;19.100;2023-03-03T09:01:47;98556.34;;;0.58;100.00
33781;BME280;20097;50.832;19.100;2023-03-03T09:06:53;98569.09;;;0.47;100.00
33781;BME280;20097;50.832;19.100;2023-03-03T09:11:58;98573.09;;;0.51;100.00
33781;BME280;20097;50.832;19.100;2023-03-03T09:17:13;98571.84;;;0.69;100.00
33781;BME280;20097;50.832;19.100;2023-03-03T09:22:24;98602.75;;;0.80;100.00
33781;BME280;20097;50.832;19.100;2023-03-03T09:27:30;98595.78;;;0.70;100.00
33781;BME280;20097;50.832;19.100;2023-03-03T09:32:36;98589.63;;;0.72;100.00
33781;BME280;20097;50.832;19.100;2023-03-03T09:37:42;98602.53;;;0.83;100.00
33781;BME280;20097;50.832;19.100;2023-03-03T09:42:52;98599.56;;;0.77;100.00
33781;BME280;20097;50.832;19.100;2023-03-03T09:48:23;98613.97;;;0.79;100.00
33781;BME280;20097;50.832;19.100;2023-03-03T09:53:42;98613.16;;;0.66;100.00
33781;BME280;20097;50.832;19.100;2023-03-03T09:58:56;98611.78;;;0.73;100.00
33781;BME280;20097;50.832;19.100;2023-03-03T10:04:28;98623.38;;;0.91;100.00
33781;BME280;20097;50.832;19.100;2023-03-03T10:09:52;98622.69;;;0.77;100.00
33781;BME280;20097;50.832;19.100;2023-03-03T10:15:09;98627.78;;;1.02;100.00
33781;BME280;20097;50.832;19.100;2023-03-03T10:20:28;98611.41;;;1.15;100.00
33781;BME280;20097;50.832;19.100;2023-03-03T10:26:00;98616.47;;;1.40;100.00
33781;BME280;20097;50.832;19.100;2023-03-03T10:31:11;98613.03;;;1.53;100.00
33781;BME280;20097;50.832;19.100;2023-03-03T10:36:33;98607.63;;;1.45;100.00
33781;BME280;20097;50.832;19.100;2023-03-03T10:41:49;98604.75;;;1.84;100.00
33781;BME280;20097;50.832;19.100;2023-03-03T10:47:04;98600.25;;;1.75;100.00
33781;BME280;20097;50.832;19.100;2023-03-03T10:52:31;98594.38;;;1.73;100.00
33781;BME280;20097;50.832;19.100;2023-03-03T10:57:40;98587.84;;;1.69;100.00
33781;BME280;20097;50.832;19.100;2023-03-03T11:03:06;98591.22;;;2.04;100.00
33781;BME280;20097;50.832;19.100;2023-03-03T11:08:17;98588.72;;;2.37;100.00
33781;BME280;20097;50.832;19.100;2023-03-03T11:13:27;98593.91;;;2.02;100.00
33781;BME280;20097;50.832;19.100;2023-03-03T11:18:47;98588.34;;;1.85;100.00
33781;BME280;20097;50.832;19.100;2023-03-03T11:24:01;98593.19;;;2.00;100.00
33781;BME280;20097;50.832;19.100;2023-03-03T11:29:29;98585.88;;;2.18;100.00
33781;BME280;20097;50.832;19.100;2023-03-03T11:34:47;98577.06;;;2.09;100.00
33781;BME280;20097;50.832;19.100;2023-03-03T11:39:54;98570.69;;;1.80;100.00
33781;BME280;20097;50.832;19.100;2023-03-03T11:45:04;98572.47;;;1.91;100.00
33781;BME280;20097;50.832;19.100;2023-03-03T11:50:17;98566.66;;;2.11;100.00
33781;BME280;20097;50.832;19.100;2023-03-03T11:55:26;98570.97;;;2.10;100.00
33781;BME280;20097;50.832;19.100;2023-03-03T12:00:32;98570.00;;;1.89;100.00
33781;BME280;20097;50.832;19.100;2023-03-03T12:05:45;98564.00;;;1.78;100.00
33781;BME280;20097;50.832;19.100;2023-03-03T12:10:54;98566.50;;;1.90;100.00
33781;BME280;20097;50.832;19.100;2023-03-03T12:16:06;98559.78;;;1.77;100.00
33781;BME280;20097;50.832;19.100;2023-03-03T12:21:23;98565.03;;;2.10;100.00
33781;BME280;20097;50.832;19.100;2023-03-03T12:26:31;98560.09;;;2.07;100.00
33781;BME280;20097;50.832;19.100;2023-03-03T12:31:45;98556.22;;;2.01;100.00
33781;BME280;20097;50.832;19.100;2023-03-03T12:37:07;98563.34;;;1.98;100.00
33781;BME280;20097;50.832;19.100;2023-03-03T12:42:19;98557.00;;;1.80;100.00
33781;BME280;20097;50.832;19.100;2023-03-03T12:47:29;98556.66;;;1.84;100.00
33781;BME280;20097;50.832;19.100;2023-03-03T12:52:42;98554.75;;;1.75;100.00
33781;BME280;20097;50.832;19.100;2023-03-03T12:57:52;98555.09;;;1.71;100.00
33781;BME280;20097;50.832;19.100;2023-03-03T13:03:08;98556.84;;;1.70;100.00
33781;BME280;20097;50.832;19.100;2023-03-03T13:08:34;98553.94;;;1.75;100.00
33781;BME280;20097;50.832;19.100;2023-03-03T13:13:48;98556.38;;;2.11;100.00
33781;BME280;20097;50.832;19.100;2023-03-03T13:18:59;98558.44;;;1.95;100.00
33781;BME280;20097;50.832;19.100;2023-03-03T13:24:10;98560.16;;;1.83;100.00
33781;BME280;20097;50.832;19.100;2023-03-03T13:29:19;98558.25;;;1.74;100.00
33781;BME280;20097;50.832;19.100;2023-03-03T13:34:36;98561.66;;;1.75;100.00
33781;BME280;20097;50.832;19.100;2023-03-03T13:39:48;98553.00;;;1.76;100.00
33781;BME280;20097;50.832;19.100;2023-03-03T13:44:56;98552.69;;;1.57;100.00
33781;BME280;20097;50.832;19.100;2023-03-03T13:50:16;98552.97;;;1.65;100.00
33781;BME280;20097;50.832;19.100;2023-03-03T13:55:24;98561.59;;;1.53;100.00
33781;BME280;20097;50.832;19.100;2023-03-03T14:00:43;98544.63;;;1.61;100.00
33781;BME280;20097;50.832;19.100;2023-03-03T14:05:56;98538.25;;;1.67;100.00
33781;BME280;20097;50.832;19.100;2023-03-03T14:11:09;98538.13;;;1.68;100.00
33781;BME280;20097;50.832;19.100;2023-03-03T14:16:15;98531.72;;;1.74;100.00
33781;BME280;20097;50.832;19.100;2023-03-03T14:21:26;98540.81;;;1.67;100.00
33781;BME280;20097;50.832;19.100;2023-03-03T14:26:34;98544.09;;;1.69;100.00
33781;BME280;20097;50.832;19.100;2023-03-03T14:31:47;98526.63;;;1.61;100.00
33781;BME280;20097;50.832;19.100;2023-03-03T14:36:59;98524.13;;;1.72;100.00
33781;BME280;20097;50.832;19.100;2023-03-03T14:42:12;98518.50;;;1.67;100.00
33781;BME280;20097;50.832;19.100;2023-03-03T14:47:21;98517.97;;;1.51;100.00
33781;BME280;20097;50.832;19.100;2023-03-03T14:52:28;98506.72;;;1.41;100.00
33781;BME280;20097;50.832;19.100;2023-03-03T14:57:42;98520.38;;;1.41;100.00
33781;BME280;20097;50.832;19.100;2023-03-03T15:02:58;98508.75;;;1.25;100.00
33781;BME280;20097;50.832;19.100;2023-03-03T15:08:11;98521.38;;;1.28;100.00
33781;BME280;20097;50.832;19.100;2023-03-03T15:13:32;98505.19;;;1.15;100.00
33781;BME280;20097;50.832;19.100;2023-03-03T15:18:56;98510.13;;;1.18;100.00
33781;BME280;20097;50.832;19.100;2023-03-03T15:24:12;98505.25;;;1.02;100.00
33781;BME280;20097;50.832;19.100;2023-03-03T15:29:22;98507.22;;;0.99;100.00
33781;BME280;20097;50.832;19.100;2023-03-03T15:34:32;98495.28;;;0.98;100.00
33781;BME280;20097;50.832;19.100;2023-03-03T15:39:44;98490.94;;;0.87;100.00
33781;BME280;20097;50.832;19.100;2023-03-03T15:44:55;98506.78;;;0.81;100.00
33781;BME280;20097;50.832;19.100;2023-03-03T15:50:11;98499.16;;;0.80;100.00
33781;BME280;20097;50.832;19.100;2023-03-03T15:55:31;98497.47;;;0.91;100.00
33781;BME280;20097;50.832;19.100;2023-03-03T16:00:41;98502.63;;;0.91;100.00
33781;BME280;20097;50.832;19.100;2023-03-03T16:05:52;98497.25;;;0.94;100.00
33781;BME280;20097;50.832;19.100;2023-03-03T16:11:03;98505.25;;;0.79;100.00
33781;BME280;20097;50.832;19.100;2023-03-03T16:16:15;98499.44;;;0.64;100.00
33781;BME280;20097;50.832;19.100;2023-03-03T16:21:28;98495.78;;;0.43;100.00
33781;BME280;20097;50.832;19.100;2023-03-03T16:26:42;98493.94;;;0.45;100.00
33781;BME280;20097;50.832;19.100;2023-03-03T16:31:52;98497.31;;;0.46;100.00
33781;BME280;20097;50.832;19.100;2023-03-03T16:37:04;98495.47;;;0.48;100.00
33781;BME280;20097;50.832;19.100;2023-03-03T16:42:17;98497.97;;;0.60;100.00
33781;BME280;20097;50.832;19.100;2023-03-03T16:47:37;98512.06;;;0.67;100.00
33781;BME280;20097;50.832;19.100;2023-03-03T16:52:47;98505.28;;;0.54;100.00
33781;BME280;20097;50.832;19.100;2023-03-03T16:58:01;98516.50;;;0.53;100.00
33781;BME280;20097;50.832;19.100;2023-03-03T17:03:17;98524.31;;;0.51;100.00
33781;BME280;20097;50.832;19.100;2023-03-03T17:08:43;98510.34;;;0.43;100.00
33781;BME280;20097;50.832;19.100;2023-03-03T17:14:01;98513.22;;;0.51;100.00
33781;BME280;20097;50.832;19.100;2023-03-03T17:19:15;98515.28;;;0.58;100.00
33781;BME280;20097;50.832;19.100;2023-03-03T17:24:30;98511.25;;;0.54;100.00
33781;BME280;20097;50.832;19.100;2023-03-03T17:29:46;98520.91;;;0.63;100.00
33781;BME280;20097;50.832;19.100;2023-03-03T17:35:04;98525.25;;;0.50;100.00
33781;BME280;20097;50.832;19.100;2023-03-03T17:40:30;98522.28;;;0.44;100.00
33781;BME280;20097;50.832;19.100;2023-03-03T17:45:42;98534.59;;;0.26;100.00
33781;BME280;20097;50.832;19.100;2023-03-03T17:51:02;98527.41;;;0.31;100.00
33781;BME280;20097;50.832;19.100;2023-03-03T17:56:15;98532.56;;;0.31;100.00
33781;BME280;20097;50.832;19.100;2023-03-03T18:01:25;98520.03;;;0.27;100.00
33781;BME280;20097;50.832;19.100;2023-03-03T18:12:14;98496.81;;;0.41;100.00
33781;BME280;20097;50.832;19.100;2023-03-03T18:17:33;98503.69;;;0.40;100.00
33781;BME280;20097;50.832;19.100;2023-03-03T18:22:41;98497.22;;;0.35;100.00
33781;BME280;20097;50.832;19.100;2023-03-03T18:27:47;98494.78;;;0.33;100.00
33781;BME280;20097;50.832;19.100;2023-03-03T18:33:13;98494.94;;;0.43;100.00
33781;BME280;20097;50.832;19.100;2023-03-03T18:43:56;98504.41;;;0.30;100.00
33781;BME280;20097;50.832;19.100;2023-03-03T18:49:03;98511.50;;;0.26;100.00
33781;BME280;20097;50.832;19.100;2023-03-03T18:54:21;98513.38;;;0.24;100.00
33781;BME280;20097;50.832;19.100;2023-03-03T18:59:48;98511.44;;;0.28;100.00
33781;BME280;20097;50.832;19.100;2023-03-03T19:05:05;98513.78;;;0.31;100.00
33781;BME280;20097;50.832;19.100;2023-03-03T19:15:55;98511.63;;;0.37;100.00
33781;BME280;20097;50.832;19.100;2023-03-03T19:21:04;98521.38;;;0.32;100.00
33781;BME280;20097;50.832;19.100;2023-03-03T19:26:25;98512.13;;;0.42;100.00
33781;BME280;20097;50.832;19.100;2023-03-03T19:31:36;98509.75;;;0.39;100.00
33781;BME280;20097;50.832;19.100;2023-03-03T19:36:55;98504.81;;;0.36;100.00
33781;BME280;20097;50.832;19.100;2023-03-03T19:42:05;98500.53;;;0.24;100.00
33781;BME280;20097;50.832;19.100;2023-03-03T19:47:22;98503.50;;;0.18;100.00
33781;BME280;20097;50.832;19.100;2023-03-03T19:52:32;98508.13;;;0.38;100.00
33781;BME280;20097;50.832;19.100;2023-03-03T19:57:44;98505.34;;;0.29;100.00
33781;BME280;20097;50.832;19.100;2023-03-03T20:03:07;98505.66;;;0.37;100.00
33781;BME280;20097;50.832;19.100;2023-03-03T20:08:26;98508.75;;;0.29;100.00
33781;BME280;20097;50.832;19.100;2023-03-03T20:13:48;98505.88;;;0.21;100.00
33781;BME280;20097;50.832;19.100;2023-03-03T20:19:07;98501.75;;;0.31;100.00
33781;BME280;20097;50.832;19.100;2023-03-03T20:24:34;98486.69;;;0.14;100.00
33781;BME280;20097;50.832;19.100;2023-03-03T20:30:07;98486.06;;;0.23;100.00
33781;BME280;20097;50.832;19.100;2023-03-03T20:35:23;98482.47;;;0.13;100.00
33781;BME280;20097;50.832;19.100;2023-03-03T20:40:31;98469.25;;;0.19;100.00
33781;BME280;20097;50.832;19.100;2023-03-03T20:45:45;98476.91;;;0.32;100.00
33781;BME280;20097;50.832;19.100;2023-03-03T20:50:55;98468.31;;;0.20;100.00
33781;BME280;20097;50.832;19.100;2023-03-03T20:56:07;98471.81;;;0.19;100.00
33781;BME280;20097;50.832;19.100;2023-03-03T21:01:15;98463.13;;;0.33;100.00
33781;BME280;20097;50.832;19.100;2023-03-03T21:06:23;98461.41;;;0.33;100.00
33781;BME280;20097;50.832;19.100;2023-03-03T21:11:42;98446.94;;;0.20;100.00
33781;BME280;20097;50.832;19.100;2023-03-03T21:16:47;98441.63;;;0.10;100.00
33781;BME280;20097;50.832;19.100;2023-03-03T21:21:52;98439.28;;;0.07;100.00
33781;BME280;20097;50.832;19.100;2023-03-03T21:26:59;98433.22;;;0.08;100.00
33781;BME280;20097;50.832;19.100;2023-03-03T21:32:04;98420.13;;;0.00;100.00
33781;BME280;20097;50.832;19.100;2023-03-03T21:37:10;98410.03;;;-0.03;100.00
33781;BME280;20097;50.832;19.100;2023-03-03T21:42:25;98396.69;;;-0.08;100.00
33781;BME280;20097;50.832;19.100;2023-03-03T21:47:32;98395.47;;;-0.03;100.00
33781;BME280;20097;50.832;19.100;2023-03-03T21:52:36;98391.16;;;-0.02;100.00
33781;BME280;20097;50.832;19.100;2023-03-03T21:57:42;98394.13;;;-0.08;100.00
33781;BME280;20097;50.832;19.100;2023-03-03T22:02:46;98395.69;;;-0.06;100.00
33781;BME280;20097;50.832;19.100;2023-03-03T22:07:50;98392.81;;;-0.14;100.00
33781;BME280;20097;50.832;19.100;2023-03-03T22:12:56;98377.44;;;-0.14;100.00
33781;BME280;20097;50.832;19.100;2023-03-03T22:18:00;98379.09;;;-0.25;100.00
33781;BME280;20097;50.832;19.100;2023-03-03T22:23:04;98376.81;;;-0.17;100.00
33781;BME280;20097;50.832;19.100;2023-03-03T22:28:09;98370.66;;;-0.15;100.00
33781;BME280;20097;50.832;19.100;2023-03-03T22:33:14;98364.22;;;-0.20;100.00
33781;BME280;20097;50.832;19.100;2023-03-03T22:38:18;98362.38;;;-0.31;100.00
33781;BME280;20097;50.832;19.100;2023-03-03T22:43:23;98356.22;;;-0.28;100.00
33781;BME280;20097;50.832;19.100;2023-03-03T22:48:29;98346.03;;;-0.17;100.00
33781;BME280;20097;50.832;19.100;2023-03-03T22:53:33;98336.81;;;-0.20;100.00
33781;BME280;20097;50.832;19.100;2023-03-03T22:58:39;98328.59;;;-0.12;100.00
33781;BME280;20097;50.832;19.100;2023-03-03T23:03:44;98327.59;;;-0.22;100.00
33781;BME280;20097;50.832;19.100;2023-03-03T23:08:48;98308.69;;;-0.21;100.00
33781;BME280;20097;50.832;19.100;2023-03-03T23:13:53;98313.63;;;-0.18;100.00
33781;BME280;20097;50.832;19.100;2023-03-03T23:18:57;98308.19;;;-0.14;100.00
33781;BME280;20097;50.832;19.100;2023-03-03T23:24:02;98308.91;;;-0.12;100.00
33781;BME280;20097;50.832;19.100;2023-03-03T23:29:07;98303.78;;;-0.12;100.00
33781;BME280;20097;50.832;19.100;2023-03-03T23:34:11;98299.03;;;-0.05;100.00
33781;BME280;20097;50.832;19.100;2023-03-03T23:39:15;98290.56;;;-0.18;100.00
33781;BME280;20097;50.832;19.100;2023-03-03T23:44:21;98280.88;;;-0.15;100.00
33781;BME280;20097;50.832;19.100;2023-03-03T23:49:26;98284.06;;;-0.11;100.00
33781;BME280;20097;50.832;19.100;2023-03-03T23:54:30;98276.91;;;-0.19;100.00
33781;BME280;20097;50.832;19.100;2023-03-03T23:59:36;98273.19;;;-0.15;100.00
